Time;durP1;ratioP1;P1;durP2;ratioP2;P2;SDS_P1;SDS_P2;PMS_P1;PMS_P2;Temp;Humidity;BMP_temperature;BMP_pressure;BME280_temperature;BME280_humidity;BME280_pressure;Samples;Min_cycle;Max_cycle;Signal;HPM_P1;HPM_P2
2023/05/14 00:02:21;;;;;;;10.73;7.35;;;17.20;99.90;;;;;;5026173;28;20040;-75
2023/05/14 00:04:47;;;;;;;9.32;7.35;;;17.10;99.90;;;;;;5027245;28;20079;-75
2023/05/14 00:07:13;;;;;;;12.73;8.20;;;17.00;99.90;;;;;;5032072;28;20059;-74
2023/05/14 00:09:38;;;;;;;10.27;8.07;;;16.90;99.90;;;;;;5022014;28;20025;-74
2023/05/14 00:12:04;;;;;;;10.20;7.78;;;16.80;99.90;;;;;;5011429;28;20029;-74
2023/05/14 00:14:32;;;;;;;13.85;8.50;;;16.80;99.90;;;;;;5026519;28;20032;-74
2023/05/14 00:17:00;;;;;;;15.70;8.63;;;16.80;99.90;;;;;;5025439;28;20557;-74
2023/05/14 00:19:26;;;;;;;13.18;8.50;;;16.80;99.90;;;;;;5024723;28;20025;-75
2023/05/14 00:21:52;;;;;;;10.27;7.53;;;16.80;99.90;;;;;;5028664;28;20409;-77
2023/05/14 00:24:18;;;;;;;14.77;8.07;;;16.70;99.90;;;;;;5000312;28;20031;-74
2023/05/14 00:29:19;;;;;;;11.25;7.72;;;16.70;99.90;;;;;;5012472;28;20050;-74
2023/05/14 00:31:45;;;;;;;9.95;7.72;;;16.70;99.90;;;;;;5012317;28;20034;-74
2023/05/14 00:34:10;;;;;;;12.75;8.27;;;16.70;99.90;;;;;;5020546;28;20111;-79
2023/05/14 00:36:36;;;;;;;11.05;7.88;;;16.60;99.90;;;;;;5036430;28;20469;-78
2023/05/14 00:39:02;;;;;;;12.18;9.25;;;16.60;99.90;;;;;;5028212;28;20021;-80
2023/05/14 00:41:28;;;;;;;10.30;8.57;;;16.60;99.90;;;;;;5015136;28;20025;-80
2023/05/14 00:43:53;;;;;;;12.32;8.35;;;16.50;99.90;;;;;;5012800;28;20032;-75
2023/05/14 00:46:21;;;;;;;9.77;8.20;;;16.50;99.90;;;;;;4999228;28;20493;-75
2023/05/14 00:48:47;;;;;;;13.18;8.50;;;16.30;99.90;;;;;;5011681;28;20032;-75
2023/05/14 00:51:13;;;;;;;15.27;9.20;;;16.30;99.90;;;;;;4992203;28;20030;-74
2023/05/14 00:53:38;;;;;;;12.48;8.25;;;16.30;99.90;;;;;;5012936;28;20033;-75
2023/05/14 00:56:07;;;;;;;9.18;7.80;;;16.30;99.90;;;;;;5008474;28;20022;-75
2023/05/14 00:58:33;;;;;;;12.65;8.82;;;16.30;99.90;;;;;;5012871;28;21167;-75
2023/05/14 01:00:58;;;;;;;13.30;9.10;;;16.20;99.90;;;;;;4999719;28;20489;-76
2023/05/14 01:03:27;;;;;;;10.32;8.07;;;16.20;99.90;;;;;;5009941;28;20097;-75
2023/05/14 01:06:20;;;;;;;12.05;8.93;;;16.10;99.90;;;;;;4997729;28;20121;-75
2023/05/14 01:09:12;;;;;;;11.07;8.68;;;16.00;99.90;;;;;;5014339;28;20615;-74
2023/05/14 01:11:38;;;;;;;15.07;8.60;;;16.00;99.90;;;;;;5002810;28;20073;-74
2023/05/14 01:14:34;;;;;;;10.40;8.35;;;16.00;99.90;;;;;;5012616;28;20068;-74
2023/05/14 01:17:03;;;;;;;9.73;8.05;;;15.90;99.90;;;;;;5014767;28;20029;-74
2023/05/14 01:19:41;;;;;;;9.20;8.05;;;15.80;99.90;;;;;;5011663;28;20393;-75
2023/05/14 01:22:07;;;;;;;10.88;7.90;;;15.80;99.90;;;;;;5017484;28;20140;-75
2023/05/14 01:24:33;;;;;;;12.80;8.48;;;15.80;99.90;;;;;;5003321;28;20099;-74
2023/05/14 01:27:23;;;;;;;12.77;8.40;;;15.70;99.90;;;;;;5014827;28;20497;-74
2023/05/14 01:30:00;;;;;;;10.32;8.48;;;15.70;99.90;;;;;;4995948;28;20125;-74
2023/05/14 01:32:28;;;;;;;9.32;7.57;;;15.70;99.90;;;;;;5013555;28;20069;-75
2023/05/14 01:35:00;;;;;;;13.52;7.97;;;15.60;99.90;;;;;;5016413;28;20052;-77
2023/05/14 01:37:28;;;;;;;16.77;9.00;;;15.60;99.90;;;;;;5013510;28;20021;-74
2023/05/14 01:39:58;;;;;;;9.52;7.95;;;15.50;99.90;;;;;;5015906;28;20033;-75
2023/05/14 01:42:25;;;;;;;10.48;7.72;;;15.50;99.90;;;;;;5014724;28;20084;-75
2023/05/14 01:44:50;;;;;;;14.75;8.00;;;15.50;99.90;;;;;;5000738;28;20022;-76
2023/05/14 01:47:16;;;;;;;8.98;7.40;;;15.40;99.90;;;;;;4996709;28;20033;-74
2023/05/14 01:49:42;;;;;;;12.05;8.02;;;15.40;99.90;;;;;;5014508;28;20040;-75
2023/05/14 01:52:08;;;;;;;16.05;7.70;;;15.30;99.90;;;;;;5014578;28;20392;-77
2023/05/14 01:54:33;;;;;;;9.75;7.93;;;15.30;99.90;;;;;;5010866;28;20076;-75
2023/05/14 01:56:59;;;;;;;12.23;7.93;;;15.30;99.90;;;;;;5012593;28;20059;-75
2023/05/14 01:59:25;;;;;;;13.70;7.70;;;15.30;99.90;;;;;;5014552;28;20171;-75
2023/05/14 02:01:50;;;;;;;12.00;7.78;;;15.30;99.90;;;;;;5001020;28;20021;-74
2023/05/14 02:04:16;;;;;;;9.07;7.60;;;15.20;99.90;;;;;;5011270;28;20747;-74
2023/05/14 02:06:41;;;;;;;11.38;7.97;;;15.20;99.90;;;;;;5018956;28;20026;-75
2023/05/14 02:09:07;;;;;;;15.75;7.85;;;15.10;99.90;;;;;;5018733;28;20037;-74
2023/05/14 02:11:33;;;;;;;16.27;7.97;;;15.00;99.90;;;;;;5015790;28;20457;-74
2023/05/14 02:13:58;;;;;;;11.18;8.27;;;15.00;99.90;;;;;;5014201;28;20552;-74
2023/05/14 02:16:26;;;;;;;15.70;8.93;;;15.00;99.90;;;;;;5014151;28;20389;-75
2023/05/14 02:18:52;;;;;;;14.77;8.25;;;14.90;99.90;;;;;;5000024;28;20420;-75
2023/05/14 02:21:17;;;;;;;13.65;7.97;;;14.90;99.90;;;;;;5013542;28;20125;-74
2023/05/14 02:23:43;;;;;;;15.05;8.38;;;14.90;99.90;;;;;;5016885;28;20059;-75
2023/05/14 02:26:09;;;;;;;13.30;8.32;;;14.80;99.90;;;;;;5014223;28;21031;-74
2023/05/14 02:28:35;;;;;;;10.23;7.85;;;14.80;99.90;;;;;;4993956;28;20037;-75
2023/05/14 02:31:00;;;;;;;13.27;8.00;;;14.70;99.90;;;;;;4997642;28;20037;-75
2023/05/14 02:33:27;;;;;;;12.45;8.35;;;14.70;99.90;;;;;;5014238;28;20087;-77
2023/05/14 02:35:52;;;;;;;12.57;8.68;;;14.70;99.90;;;;;;5011958;28;20021;-74
2023/05/14 02:38:18;;;;;;;14.90;8.48;;;14.60;99.90;;;;;;5011932;28;20606;-74
2023/05/14 02:40:44;;;;;;;20.25;9.07;;;14.60;99.90;;;;;;5011110;28;20030;-75
2023/05/14 02:43:12;;;;;;;14.52;8.82;;;14.60;99.90;;;;;;5013375;28;20565;-75
2023/05/14 02:45:37;;;;;;;15.60;8.98;;;14.50;99.90;;;;;;5017782;28;20030;-75
2023/05/14 02:48:03;;;;;;;15.05;9.27;;;14.50;99.90;;;;;;5012327;28;20087;-74
2023/05/14 02:50:29;;;;;;;10.57;8.63;;;14.50;99.90;;;;;;5010138;28;20083;-75
2023/05/14 02:52:54;;;;;;;11.32;8.38;;;14.40;99.90;;;;;;5010786;28;20037;-75
2023/05/14 02:55:20;;;;;;;22.23;9.48;;;14.40;99.90;;;;;;5014432;28;20021;-77
2023/05/14 02:57:46;;;;;;;12.20;9.05;;;14.40;99.90;;;;;;5011309;28;20104;-75
2023/05/14 03:00:12;;;;;;;19.15;9.13;;;14.40;99.90;;;;;;5012176;28;20097;-77
2023/05/14 03:02:38;;;;;;;11.60;9.80;;;14.30;99.90;;;;;;5015643;28;20022;-75
2023/05/14 03:05:04;;;;;;;13.10;10.13;;;14.30;99.90;;;;;;4998813;28;20037;-74
2023/05/14 03:07:29;;;;;;;11.00;8.82;;;14.20;99.90;;;;;;5013634;28;20540;-75
2023/05/14 03:09:55;;;;;;;12.38;9.57;;;14.20;99.90;;;;;;5014689;28;20141;-76
2023/05/14 03:12:21;;;;;;;16.50;9.80;;;14.10;99.90;;;;;;5012562;28;20136;-75
2023/05/14 03:14:46;;;;;;;11.45;9.52;;;14.10;99.90;;;;;;5001452;28;20090;-74
2023/05/14 03:17:12;;;;;;;13.43;9.77;;;14.10;99.90;;;;;;5000064;28;20030;-74
2023/05/14 03:19:37;;;;;;;14.88;10.27;;;14.10;99.90;;;;;;5013149;28;20051;-74
2023/05/14 03:22:03;;;;;;;14.75;9.88;;;14.00;99.90;;;;;;5014140;28;20051;-77
2023/05/14 03:24:29;;;;;;;17.42;10.18;;;14.00;99.90;;;;;;4995863;28;20121;-75
2023/05/14 03:26:54;;;;;;;13.13;10.00;;;14.00;99.90;;;;;;5014845;28;20022;-75
2023/05/14 03:29:20;;;;;;;15.35;10.25;;;13.90;99.90;;;;;;5012807;28;20530;-75
2023/05/14 03:31:46;;;;;;;13.70;10.27;;;13.90;99.90;;;;;;4995334;28;20041;-74
2023/05/14 03:34:11;;;;;;;12.55;9.82;;;13.90;99.90;;;;;;5011141;28;20013;-74
2023/05/14 03:36:38;;;;;;;13.75;9.85;;;13.80;99.90;;;;;;5011724;28;20107;-75
2023/05/14 03:39:06;;;;;;;16.55;10.35;;;13.80;99.90;;;;;;5013928;28;20049;-78
2023/05/14 03:41:32;;;;;;;19.38;11.88;;;13.80;99.90;;;;;;5015215;28;20032;-75
2023/05/14 03:43:58;;;;;;;18.23;11.73;;;13.80;99.90;;;;;;5010597;28;20091;-74
2023/05/14 03:46:24;;;;;;;17.77;11.57;;;13.80;99.90;;;;;;5012200;28;20421;-74
2023/05/14 03:48:49;;;;;;;21.27;11.40;;;13.80;99.90;;;;;;5012686;28;20167;-75
2023/05/14 03:51:17;;;;;;;15.02;10.35;;;13.90;99.90;;;;;;5012353;28;20036;-74
2023/05/14 03:53:42;;;;;;;12.55;10.90;;;13.90;99.90;;;;;;5010373;28;20030;-77
2023/05/14 03:56:08;;;;;;;22.20;10.50;;;13.80;99.90;;;;;;5012450;28;20025;-76
2023/05/14 03:58:34;;;;;;;12.52;10.45;;;13.80;99.90;;;;;;5011348;28;20026;-76
2023/05/14 04:01:02;;;;;;;17.55;11.05;;;13.80;99.90;;;;;;5010815;28;20034;-77
2023/05/14 04:03:27;;;;;;;15.75;10.82;;;13.80;99.90;;;;;;5009913;28;20032;-76
2023/05/14 04:05:53;;;;;;;15.18;10.27;;;13.80;99.90;;;;;;5013021;28;20566;-77
2023/05/14 04:08:18;;;;;;;14.52;10.15;;;13.80;99.90;;;;;;5012685;28;20389;-74
2023/05/14 04:10:44;;;;;;;13.95;10.52;;;13.80;99.90;;;;;;5012523;28;20163;-77
2023/05/14 04:13:10;;;;;;;15.30;10.48;;;13.80;99.90;;;;;;5011034;28;20485;-75
2023/05/14 04:15:38;;;;;;;18.35;11.02;;;13.80;99.90;;;;;;5014463;28;20049;-76
2023/05/14 04:18:04;;;;;;;16.58;10.35;;;13.80;99.90;;;;;;5010815;28;20139;-77
2023/05/14 04:20:29;;;;;;;16.45;11.35;;;13.80;99.90;;;;;;5009168;28;20441;-77
2023/05/14 04:22:56;;;;;;;14.25;10.43;;;13.80;99.90;;;;;;5013407;28;20037;-76
2023/05/14 04:25:22;;;;;;;14.85;10.30;;;13.80;99.90;;;;;;5008434;28;20018;-77
2023/05/14 04:27:48;;;;;;;15.52;10.57;;;13.80;99.90;;;;;;5013704;28;20118;-77
2023/05/14 04:30:14;;;;;;;16.10;11.85;;;13.70;99.90;;;;;;5000384;28;20467;-77
2023/05/14 04:32:43;;;;;;;17.27;11.65;;;13.70;99.90;;;;;;5014293;28;20045;-74
2023/05/14 04:35:09;;;;;;;16.00;11.27;;;13.70;99.90;;;;;;5013008;28;20029;-75
2023/05/14 04:37:35;;;;;;;16.98;10.82;;;13.70;99.90;;;;;;5006988;28;20094;-77
2023/05/14 04:40:00;;;;;;;16.60;12.52;;;13.70;99.90;;;;;;5012842;28;20026;-76
2023/05/14 04:42:26;;;;;;;18.58;12.20;;;13.70;99.90;;;;;;5016425;28;20396;-77
2023/05/14 04:44:51;;;;;;;17.17;11.75;;;13.80;99.90;;;;;;5013983;28;20029;-77
2023/05/14 04:47:17;;;;;;;16.05;12.05;;;13.70;99.90;;;;;;5015503;28;20426;-75
2023/05/14 04:49:43;;;;;;;17.50;13.43;;;13.70;99.90;;;;;;5024205;28;20089;-77
2023/05/14 04:52:08;;;;;;;19.95;12.63;;;13.70;99.90;;;;;;5034954;28;21331;-77
2023/05/14 04:54:34;;;;;;;17.90;11.95;;;13.70;99.90;;;;;;5030881;28;20049;-77
2023/05/14 04:57:02;;;;;;;16.23;12.43;;;13.80;99.90;;;;;;5022879;28;20045;-78
2023/05/14 04:59:30;;;;;;;24.88;12.23;;;13.80;99.90;;;;;;5011385;28;20022;-77
2023/05/14 05:01:56;;;;;;;22.83;12.95;;;13.90;99.90;;;;;;4995018;28;20425;-76
2023/05/14 05:04:22;;;;;;;16.30;12.70;;;14.00;99.90;;;;;;5012179;28;20037;-77
2023/05/14 05:06:49;;;;;;;20.25;12.80;;;14.00;99.90;;;;;;5011305;28;20045;-77
2023/05/14 05:09:16;;;;;;;20.13;14.00;;;14.10;99.90;;;;;;4993267;28;20092;-77
2023/05/14 05:11:41;;;;;;;20.38;13.70;;;14.10;99.90;;;;;;5010498;28;20038;-77
2023/05/14 05:14:09;;;;;;;21.10;13.90;;;14.10;99.90;;;;;;5014614;28;20504;-76
2023/05/14 05:16:35;;;;;;;26.73;14.52;;;14.30;99.90;;;;;;5014991;28;20208;-77
2023/05/14 05:19:03;;;;;;;21.27;14.90;;;14.30;99.90;;;;;;5012705;28;20048;-77
2023/05/14 05:21:32;;;;;;;20.95;14.07;;;14.30;99.90;;;;;;5014690;28;20026;-76
2023/05/14 05:24:00;;;;;;;19.45;13.43;;;14.40;99.90;;;;;;5012999;28;20617;-75
2023/05/14 05:26:26;;;;;;;19.17;14.05;;;14.50;99.90;;;;;;5008562;28;20116;-75
2023/05/14 05:28:52;;;;;;;22.42;14.63;;;14.60;99.90;;;;;;5010319;28;20788;-76
2023/05/14 05:31:18;;;;;;;20.77;14.43;;;14.60;99.90;;;;;;5010991;28;20024;-78
2023/05/14 05:33:46;;;;;;;29.52;14.40;;;14.80;99.90;;;;;;4995246;28;20045;-75
2023/05/14 05:36:12;;;;;;;22.80;13.55;;;14.90;99.90;;;;;;5014027;28;20026;-77
2023/05/14 05:38:37;;;;;;;22.45;12.88;;;14.90;99.90;;;;;;5015272;28;20060;-76
2023/05/14 05:41:03;;;;;;;15.98;12.80;;;14.90;99.90;;;;;;4999117;28;20026;-84
2023/05/14 05:43:28;;;;;;;19.08;13.75;;;15.00;99.90;;;;;;5004297;28;20025;-81
2023/05/14 05:45:54;;;;;;;20.80;13.55;;;15.10;99.90;;;;;;5012600;28;20029;-76
2023/05/14 05:48:20;;;;;;;18.52;13.80;;;15.10;99.90;;;;;;5013490;28;20028;-76
2023/05/14 05:50:49;;;;;;;19.92;13.55;;;15.10;99.90;;;;;;5014906;28;20121;-76
2023/05/14 05:53:15;;;;;;;18.40;13.98;;;15.20;99.90;;;;;;5005691;28;20036;-77
2023/05/14 05:55:41;;;;;;;18.63;13.95;;;15.30;99.90;;;;;;5015016;28;20021;-77
2023/05/14 05:58:09;;;;;;;19.70;14.07;;;15.30;99.90;;;;;;5017943;28;20535;-76
2023/05/14 06:00:35;;;;;;;19.35;14.23;;;15.40;99.90;;;;;;5019139;28;20105;-76
2023/05/14 06:03:02;;;;;;;18.30;14.38;;;15.40;99.90;;;;;;5016073;28;20124;-76
2023/05/14 06:05:28;;;;;;;17.23;13.65;;;15.40;99.90;;;;;;5016230;28;20033;-77
2023/05/14 06:07:54;;;;;;;22.80;14.20;;;15.50;99.90;;;;;;5013816;28;20048;-77
2023/05/14 06:10:19;;;;;;;23.20;14.48;;;15.60;99.90;;;;;;5015676;28;20057;-75
2023/05/14 06:12:45;;;;;;;21.08;14.68;;;15.70;99.90;;;;;;5012338;28;20105;-76
2023/05/14 06:15:13;;;;;;;18.83;14.05;;;15.80;99.90;;;;;;5016939;28;20097;-76
2023/05/14 06:17:39;;;;;;;19.23;13.70;;;15.80;99.90;;;;;;4997538;28;20085;-76
2023/05/14 06:20:06;;;;;;;18.48;14.32;;;15.80;99.90;;;;;;5016245;28;20057;-77
2023/05/14 06:22:34;;;;;;;19.52;14.68;;;15.80;99.90;;;;;;4999179;28;20040;-76
2023/05/14 06:25:00;;;;;;;21.33;14.60;;;16.00;99.90;;;;;;5016548;28;20500;-77
2023/05/14 06:27:26;;;;;;;19.63;13.75;;;16.10;99.90;;;;;;5011904;28;20034;-77
2023/05/14 06:29:53;;;;;;;23.65;14.52;;;16.30;99.90;;;;;;5015308;28;20501;-76
2023/05/14 06:32:21;;;;;;;17.45;14.05;;;16.40;99.90;;;;;;4998093;28;20021;-75
2023/05/14 06:34:47;;;;;;;18.65;13.60;;;16.60;99.90;;;;;;5011706;28;20029;-76
2023/05/14 06:37:13;;;;;;;20.98;13.13;;;16.60;99.90;;;;;;4999054;28;20086;-76
2023/05/14 06:39:45;;;;;;;23.40;14.68;;;16.70;99.90;;;;;;5012664;28;20478;-75
2023/05/14 06:42:10;;;;;;;19.08;13.90;;;16.80;99.90;;;;;;5017053;28;20437;-76
2023/05/14 06:44:36;;;;;;;17.73;14.18;;;16.90;99.90;;;;;;5016201;28;20052;-76
2023/05/14 06:47:07;;;;;;;18.98;13.27;;;17.10;99.90;;;;;;5013122;28;20060;-76
2023/05/14 06:49:33;;;;;;;18.60;13.73;;;17.20;99.90;;;;;;5013946;28;20037;-76
2023/05/14 06:51:59;;;;;;;20.55;14.10;;;17.30;99.90;;;;;;5013740;28;20059;-75
2023/05/14 06:54:25;;;;;;;19.25;14.18;;;17.40;99.90;;;;;;5014623;28;20014;-76
2023/05/14 06:56:50;;;;;;;17.50;13.95;;;17.50;99.90;;;;;;4994391;28;20026;-75
2023/05/14 06:59:16;;;;;;;17.55;13.73;;;17.60;99.90;;;;;;5012173;28;20120;-77
2023/05/14 07:01:42;;;;;;;15.35;13.40;;;17.60;99.90;;;;;;5013727;28;20034;-76
2023/05/14 07:04:07;;;;;;;15.70;12.85;;;17.80;99.90;;;;;;5016181;28;20341;-76
2023/05/14 07:06:33;;;;;;;18.75;13.60;;;17.80;99.90;;;;;;5015304;28;20119;-75
2023/05/14 07:09:00;;;;;;;20.10;13.15;;;17.90;99.90;;;;;;5011670;28;20465;-75
2023/05/14 07:11:25;;;;;;;15.35;12.88;;;18.10;99.90;;;;;;4997392;28;20485;-76
2023/05/14 07:13:51;;;;;;;14.75;11.85;;;18.20;99.90;;;;;;4997775;28;20017;-75
2023/05/14 07:16:19;;;;;;;15.45;11.52;;;18.20;99.90;;;;;;5015104;28;20025;-75
2023/05/14 07:18:45;;;;;;;20.35;12.32;;;18.40;99.90;;;;;;5013352;28;20036;-76
2023/05/14 07:21:11;;;;;;;22.33;12.32;;;18.50;99.90;;;;;;5013664;28;20030;-76
2023/05/14 07:23:37;;;;;;;14.70;12.13;;;18.60;99.90;;;;;;5012024;28;20615;-75
2023/05/14 07:26:04;;;;;;;14.70;12.32;;;18.70;99.90;;;;;;5012643;28;20020;-76
2023/05/14 07:28:30;;;;;;;16.50;11.77;;;18.80;99.90;;;;;;5011466;28;20045;-76
2023/05/14 07:30:56;;;;;;;14.88;11.10;;;18.90;99.90;;;;;;5015306;28;20200;-76
2023/05/14 07:33:24;;;;;;;16.90;11.55;;;19.10;99.90;;;;;;4995752;28;20083;-75
2023/05/14 07:35:50;;;;;;;14.02;11.45;;;19.30;99.90;;;;;;4994600;28;20037;-76
2023/05/14 07:38:16;;;;;;;14.25;11.57;;;19.50;99.90;;;;;;4999150;28;20032;-77
2023/05/14 07:40:44;;;;;;;16.17;11.75;;;19.60;99.90;;;;;;5018361;28;20438;-75
2023/05/14 07:43:10;;;;;;;14.48;11.43;;;19.60;99.90;;;;;;5012608;28;20097;-75
2023/05/14 07:45:37;;;;;;;18.88;12.35;;;19.50;99.90;;;;;;5016824;28;20124;-76
2023/05/14 07:48:03;;;;;;;13.85;11.35;;;19.40;99.90;;;;;;4994862;28;20018;-76
2023/05/14 07:50:29;;;;;;;16.40;12.00;;;19.50;99.90;;;;;;5011493;28;20185;-77
2023/05/14 07:52:54;;;;;;;19.55;11.25;;;19.60;99.90;;;;;;5015892;28;20044;-81
2023/05/14 07:55:20;;;;;;;13.52;11.88;;;19.70;99.90;;;;;;4991755;28;20021;-76
2023/05/14 07:57:46;;;;;;;18.02;12.05;;;19.90;99.90;;;;;;5013766;28;20625;-77
2023/05/14 08:00:12;;;;;;;17.98;11.07;;;20.00;99.90;;;;;;4996153;28;20076;-77
2023/05/14 08:02:38;;;;;;;17.25;11.98;;;20.20;99.90;;;;;;4994628;28;20429;-81
2023/05/14 08:05:04;;;;;;;13.75;11.10;;;20.50;99.90;;;;;;5014919;28;20160;-82
2023/05/14 08:07:29;;;;;;;14.25;10.90;;;20.60;99.90;;;;;;4995072;28;20432;-83
2023/05/14 08:09:55;;;;;;;13.25;10.95;;;20.90;99.90;;;;;;5001661;28;20056;-76
2023/05/14 08:12:21;;;;;;;11.68;9.90;;;21.20;99.90;;;;;;5013417;28;20505;-83
2023/05/14 08:14:47;;;;;;;13.57;9.93;;;21.40;99.90;;;;;;5011800;28;20037;-80
2023/05/14 08:17:13;;;;;;;14.80;10.70;;;21.50;99.50;;;;;;5001186;28;20037;-81
2023/05/14 08:19:38;;;;;;;10.38;9.20;;;21.40;99.50;;;;;;5012550;28;20025;-82
2023/05/14 08:22:04;;;;;;;14.20;9.07;;;21.50;99.40;;;;;;5015705;28;20044;-81
2023/05/14 08:24:30;;;;;;;14.23;9.00;;;21.70;98.70;;;;;;5014670;28;20029;-81
2023/05/14 08:26:56;;;;;;;11.57;8.32;;;21.90;97.80;;;;;;5010411;28;20114;-82
2023/05/14 08:29:24;;;;;;;9.95;8.68;;;22.00;97.30;;;;;;5009149;28;20092;-77
2023/05/14 08:31:50;;;;;;;15.93;9.38;;;22.20;97.20;;;;;;5011752;28;20073;-79
2023/05/14 08:34:17;;;;;;;10.95;9.02;;;22.60;96.50;;;;;;4998619;28;20053;-79
2023/05/14 08:36:42;;;;;;;11.02;8.70;;;22.80;95.20;;;;;;5013175;28;20092;-79
2023/05/14 08:39:10;;;;;;;12.02;8.98;;;22.70;95.30;;;;;;5012985;28;20029;-78
2023/05/14 08:41:38;;;;;;;9.63;8.73;;;22.70;96.10;;;;;;5012463;28;20508;-80
2023/05/14 08:44:10;;;;;;;12.38;8.30;;;23.00;94.90;;;;;;5011728;28;20032;-78
2023/05/14 08:46:37;;;;;;;9.45;8.45;;;23.50;94.50;;;;;;5013421;28;20027;-78
2023/05/14 08:49:20;;;;;;;9.88;8.82;;;23.90;93.10;;;;;;4999313;28;20376;-81
2023/05/14 08:51:47;;;;;;;11.50;8.93;;;24.30;92.00;;;;;;5011526;28;20042;-81
2023/05/14 08:54:16;;;;;;;11.07;9.13;;;24.60;91.00;;;;;;4999048;28;20044;-78
2023/05/14 08:56:44;;;;;;;12.23;8.27;;;24.90;90.80;;;;;;4995304;28;20037;-76
2023/05/14 08:59:10;;;;;;;9.77;8.80;;;25.10;90.50;;;;;;5009006;28;20025;-76
2023/05/14 09:01:39;;;;;;;9.35;8.20;;;25.30;88.70;;;;;;5012668;28;20065;-76
2023/05/14 09:04:07;;;;;;;12.20;8.07;;;25.40;86.70;;;;;;5010447;28;20080;-76
2023/05/14 09:06:37;;;;;;;9.82;8.57;;;25.40;83.40;;;;;;5013319;28;20025;-76
2023/05/14 09:09:05;;;;;;;11.65;7.40;;;25.40;83.00;;;;;;5011676;28;20550;-76
2023/05/14 09:11:31;;;;;;;9.73;8.43;;;25.10;86.80;;;;;;5014742;28;20565;-76
2023/05/14 09:13:57;;;;;;;8.30;7.60;;;25.30;83.00;;;;;;5013101;28;20030;-77
2023/05/14 09:16:24;;;;;;;14.15;7.97;;;25.60;83.00;;;;;;5012099;28;20017;-76
2023/05/14 09:18:50;;;;;;;8.48;7.68;;;25.70;80.30;;;;;;5011882;28;20590;-76
2023/05/14 09:21:17;;;;;;;10.93;8.43;;;26.20;81.10;;;;;;5011144;28;20045;-81
2023/05/14 09:23:46;;;;;;;9.98;7.55;;;26.60;77.30;;;;;;4994750;28;20063;-76
2023/05/14 09:26:16;;;;;;;9.57;8.60;;;27.10;76.40;;;;;;5017133;28;20054;-83
2023/05/14 09:28:42;;;;;;;9.15;7.30;;;27.50;76.80;;;;;;4997296;28;20569;-77
2023/05/14 09:31:09;;;;;;;9.45;8.05;;;27.80;72.90;;;;;;5018712;28;20018;-75
2023/05/14 09:33:36;;;;;;;9.13;7.88;;;27.80;70.10;;;;;;5012938;28;20034;-77
2023/05/14 09:36:02;;;;;;;14.35;8.52;;;27.60;71.90;;;;;;5018169;28;20424;-76
2023/05/14 09:38:32;;;;;;;8.25;7.47;;;27.70;69.40;;;;;;5014624;28;20112;-77
2023/05/14 09:40:59;;;;;;;8.60;7.72;;;27.80;70.40;;;;;;5014889;28;20025;-76
2023/05/14 09:43:28;;;;;;;8.90;7.30;;;28.20;70.30;;;;;;5017152;28;20129;-76
2023/05/14 09:45:53;;;;;;;12.73;7.95;;;28.40;66.10;;;;;;5015821;28;20547;-76
2023/05/14 09:48:19;;;;;;;8.80;7.85;;;28.40;68.60;;;;;;5015560;28;20025;-77
2023/05/14 09:50:45;;;;;;;10.25;7.75;;;28.20;68.50;;;;;;5000984;28;20473;-79
2023/05/14 09:53:12;;;;;;;10.30;7.53;;;28.00;69.20;;;;;;5000914;28;20458;-81
2023/05/14 09:55:40;;;;;;;12.27;7.60;;;28.30;67.20;;;;;;4998311;28;20017;-77
2023/05/14 09:58:08;;;;;;;12.73;7.68;;;28.70;65.50;;;;;;5012896;28;20029;-77
2023/05/14 10:00:34;;;;;;;7.75;7.00;;;28.40;67.40;;;;;;5018688;28;20041;-77
2023/05/14 10:03:05;;;;;;;8.18;5.80;;;28.70;66.30;;;;;;5014752;28;20033;-81
2023/05/14 10:05:40;;;;;;;11.27;5.18;;;28.80;61.80;;;;;;5015724;28;20096;-79
2023/05/14 10:08:28;;;;;;;5.60;4.90;;;29.30;60.10;;;;;;5014634;28;20026;-79
2023/05/14 10:10:54;;;;;;;6.72;4.85;;;30.10;57.20;;;;;;4996473;28;20021;-80
2023/05/14 10:13:36;;;;;;;9.68;5.28;;;30.30;53.70;;;;;;5015108;28;20704;-75
2023/05/14 10:16:04;;;;;;;5.15;4.85;;;30.30;55.60;;;;;;5014526;28;20077;-81
2023/05/14 10:18:31;;;;;;;11.98;5.35;;;30.00;54.80;;;;;;4995233;28;20224;-79
2023/05/14 10:21:05;;;;;;;5.53;5.10;;;29.60;53.80;;;;;;5016233;28;20025;-78
2023/05/14 10:23:31;;;;;;;5.03;4.63;;;29.40;55.50;;;;;;5013778;28;20017;-82
2023/05/14 10:25:58;;;;;;;5.28;4.88;;;29.50;53.90;;;;;;4999506;28;20472;-82
2023/05/14 10:28:24;;;;;;;6.88;5.07;;;29.70;54.70;;;;;;5013039;28;20168;-85
2023/05/14 10:30:50;;;;;;;6.25;4.82;;;29.80;53.30;;;;;;4999373;28;20417;-75
2023/05/14 10:33:17;;;;;;;13.10;4.65;;;29.70;54.30;;;;;;5014612;28;20038;-76
2023/05/14 10:36:04;;;;;;;5.22;4.72;;;29.80;51.90;;;;;;5015423;28;20018;-76
2023/05/14 10:38:37;;;;;;;7.68;5.28;;;30.30;51.50;;;;;;5013481;28;20554;-76
2023/05/14 10:41:02;;;;;;;;;;;30.00;51.00;;;;;;4998821;28;20029;-76
2023/05/14 10:43:29;;;;;;;6.10;4.95;;;29.80;50.00;;;;;;4998864;28;19908;-77
2023/05/14 10:45:59;;;;;;;4.97;4.47;;;30.10;50.70;;;;;;5014328;28;20030;-76
2023/05/14 10:48:25;;;;;;;7.32;4.97;;;30.60;50.30;;;;;;5014544;28;20020;-77
2023/05/14 10:50:51;;;;;;;9.63;5.32;;;31.00;51.00;;;;;;5013957;28;20033;-76
2023/05/14 10:53:21;;;;;;;5.88;5.13;;;31.60;50.70;;;;;;5017254;28;20065;-77
2023/05/14 10:55:46;;;;;;;5.13;4.63;;;31.50;49.80;;;;;;5016922;28;20041;-77
2023/05/14 10:58:13;;;;;;;9.43;5.15;;;31.10;49.70;;;;;;5034282;28;20120;-77
2023/05/14 11:00:40;;;;;;;7.45;4.65;;;30.50;46.90;;;;;;5031254;28;20014;-76
2023/05/14 11:03:06;;;;;;;7.43;5.47;;;30.30;50.50;;;;;;5035507;28;20026;-78
2023/05/14 11:05:36;;;;;;;7.18;5.10;;;30.30;49.50;;;;;;5015307;28;20616;-77
2023/05/14 11:08:06;;;;;;;5.18;4.78;;;30.50;50.60;;;;;;4998167;28;20868;-76
2023/05/14 11:10:34;;;;;;;8.13;4.95;;;30.60;50.20;;;;;;5015352;28;20536;-76
2023/05/14 11:13:02;;;;;;;5.53;4.28;;;30.00;50.20;;;;;;5016069;28;20290;-76
2023/05/14 11:15:28;;;;;;;5.85;3.80;;;29.70;50.80;;;;;;5015304;28;20940;-76
2023/05/14 11:17:54;;;;;;;6.68;4.82;;;29.60;49.60;;;;;;5014477;28;20088;-75
2023/05/14 11:20:20;;;;;;;4.72;4.32;;;29.60;49.00;;;;;;5013429;28;20032;-76
2023/05/14 11:22:47;;;;;;;4.50;4.10;;;29.50;50.20;;;;;;5014238;28;20438;-76
2023/05/14 11:25:14;;;;;;;5.18;3.63;;;29.40;48.10;;;;;;5012171;28;20501;-76
2023/05/14 11:27:41;;;;;;;4.57;3.92;;;29.60;50.10;;;;;;5009251;28;20026;-76
2023/05/14 11:30:15;;;;;;;5.32;3.33;;;29.50;47.70;;;;;;5015491;28;20025;-76
2023/05/14 11:32:42;;;;;;;3.80;3.40;;;29.60;47.70;;;;;;5000449;28;20132;-76
2023/05/14 11:35:10;;;;;;;5.95;3.58;;;29.20;48.00;;;;;;5013323;28;20181;-76
2023/05/14 11:37:37;;;;;;;4.80;3.70;;;28.70;49.80;;;;;;5012924;28;20033;-77
2023/05/14 11:40:08;;;;;;;4.25;3.85;;;28.30;50.00;;;;;;4995176;28;20033;-76
2023/05/14 11:42:38;;;;;;;4.95;3.67;;;27.70;48.70;;;;;;5014289;28;20103;-76
2023/05/14 11:45:04;;;;;;;9.05;3.78;;;27.30;49.90;;;;;;5012094;28;20018;-76
2023/05/14 11:47:30;;;;;;;5.80;3.75;;;27.10;49.70;;;;;;5010037;28;20416;-77
2023/05/14 11:49:56;;;;;;;6.28;3.40;;;27.00;49.70;;;;;;5011495;28;20017;-76
2023/05/14 11:52:22;;;;;;;6.57;3.45;;;27.00;51.90;;;;;;5010054;28;20037;-76
2023/05/14 11:54:49;;;;;;;6.07;3.22;;;27.40;50.50;;;;;;5017066;28;20099;-75
2023/05/14 11:57:17;;;;;;;8.23;3.53;;;27.70;49.60;;;;;;5013859;28;20033;-77
2023/05/14 11:59:46;;;;;;;3.20;2.83;;;27.80;48.30;;;;;;5010790;28;20018;-76
2023/05/14 12:02:14;;;;;;;3.25;2.95;;;28.10;47.30;;;;;;5010325;28;20481;-76
2023/05/14 12:04:41;;;;;;;9.52;3.08;;;28.60;47.10;;;;;;5009724;28;20477;-75
2023/05/14 12:07:11;;;;;;;3.95;3.65;;;29.10;44.90;;;;;;5013304;28;20060;-76
2023/05/14 12:09:49;;;;;;;4.68;2.92;;;29.30;45.20;;;;;;5011631;28;20110;-76
2023/05/14 12:12:23;;;;;;;7.43;2.80;;;29.60;42.60;;;;;;5011129;28;20045;-76
2023/05/14 12:14:49;;;;;;;8.05;2.88;;;29.70;41.60;;;;;;5010005;28;20108;-76
2023/05/14 12:17:20;;;;;;;4.88;2.90;;;29.80;45.30;;;;;;5012764;28;20520;-76
2023/05/14 12:19:55;;;;;;;5.10;3.33;;;30.10;44.10;;;;;;5007867;28;20112;-76
2023/05/14 12:22:24;;;;;;;6.35;3.28;;;30.30;42.30;;;;;;4996050;28;20505;-76
2023/05/14 12:24:54;;;;;;;3.60;2.95;;;30.30;42.70;;;;;;5007301;28;20097;-75
2023/05/14 12:27:22;;;;;;;6.47;2.90;;;30.20;41.20;;;;;;4999684;28;20025;-75
2023/05/14 12:30:04;;;;;;;7.53;3.38;;;30.50;42.20;;;;;;4995612;28;20580;-76
2023/05/14 12:32:34;;;;;;;4.18;3.13;;;30.80;42.20;;;;;;4996105;28;20041;-76
2023/05/14 12:35:02;;;;;;;8.23;3.15;;;30.30;41.20;;;;;;5011289;28;20021;-76
2023/05/14 12:37:28;;;;;;;8.35;3.00;;;30.00;42.40;;;;;;4994509;28;20548;-76
2023/05/14 12:39:53;;;;;;;9.02;3.35;;;29.90;40.70;;;;;;4997417;28;20030;-76